首页
METAR-TAF:

METAR-TAF

机场 :

康科德, 北卡罗来纳州, 美国

纬度: 35-23-07N, 经度: 080-42-35W, 海拔: 210米

当前天气观测

该预报发布于37分钟前的13:50 UTC
静风
温度 15°C
湿度 94%
气压 1015 hPa
能見度: 1.2公里
阴天层高于500英尺
轻雾

METAR: KJQF 241350Z 00000KT 3/4SM BR OVC005 15/14 A2996

时间: 10:27 (14:27 UTC)


TAF: 丢失

超过4000个机场的气象观测和天气预报(METAR&TAF报告)。

可查询的气象台以黄色和红色小点在地图上表示。

将鼠标移到小点上方,可查看气象台名称。

然后点击查看天气观测和预报。

如需切换地图:点击带黑十字的绿色按钮放大地图;点击带横线的绿色按钮缩小地图;或者点击绿色箭头查看邻近地区的地图。


METAR-TAF: